Skip Navigation Links Skip Navigation Links

Current Weather

Moore County, Pinehurst/Southern Pines, N.C.

For information only: do not use for flight planning or navigation.
Latest weather
Observation time Friday, December 4, 2020 1:56 AM EST
Local time Friday, December 4, 2020 2:37 AM EST
Flight conditions Visual Meteorological Conditions
Winds
Wind speed calm
Visibility 10 mi.
Sky condition
Ceiling unlimited
Sky clear
Temperature 41°F
Dewpoint 30°F
Altimeter 30.25 in.Hg
Derived measurements
Relative humidity 65%
Wind chill 41°F
Density altitude -1038 ft.
Sea-level pressure 30.27 in.Hg
Remarks
Fully automated report.
System requires maintenance.
Automated weather observing station with precipitation discriminator.
Precipitation sensor not operating.
METAR KSOP 040656Z AUTO 00000KT 10SM CLR 05/M01 A3025 RMK AO2 SLP250 T00501011 PNO $

Settings

Location code

InnerDrive.Weather 4.0.6770.0 Release CLR 4.0.30319.42000
Copyright ©2018 Inner Drive Technology. All rights reserved. Portions Copyright ©1986-2018 David Braverman.

Find weather

Site navigation


Skip Navigation Links

Place info

Page info

PayPal - The safer, easier way to pay online!

Return home.

Copyright ©2020 Inner Drive Technology. Purveyors of fine, hand-crafted computer software. Page printed 2020-12-04T07:37:57 UTC.